page 5622 of 1011831 registered users

eBook PostsUsers

  1. 0subway0cell registered @ 2013-01-25 17:34:22, last login @ 2013-01-25 17:34:22
  2. 0walk9galley registered @ 2013-01-25 17:35:29, last login @ 2013-01-25 17:35:29
  3. 0atomghost4 registered @ 2013-01-25 17:36:17, last login @ 2013-01-25 17:36:17
  4. 0stove5mass registered @ 2013-01-25 17:36:29, last login @ 2013-01-25 17:36:29
  5. 0space49raven registered @ 2013-01-25 17:38:17, last login @ 2013-01-25 17:38:17
  6. 0europe54neck registered @ 2013-01-25 17:38:31, last login @ 2013-01-25 17:38:31
  7. 0kettleepoxy5 registered @ 2013-01-25 17:40:06, last login @ 2013-01-25 17:40:06
  8. 0motherthrill42 registered @ 2013-01-25 17:41:17, last login @ 2013-01-25 17:41:17
  9. 0turkey14latex registered @ 2013-01-25 17:41:31, last login @ 2013-01-25 17:41:31
  10. 0blood18crate registered @ 2013-01-25 17:45:10, last login @ 2013-01-25 17:45:10
  11. 0usedgolfclubs587 registered @ 2013-01-25 17:45:38, last login @ 2013-01-25 17:45:38
  12. 0flower02meal registered @ 2013-01-25 17:46:19, last login @ 2013-01-25 17:46:19
  13. 0snail1vacuum registered @ 2013-01-25 17:46:50, last login @ 2013-01-25 17:46:50
  14. 0turkeyerror8 registered @ 2013-01-25 17:47:29, last login @ 2013-01-25 17:47:29
  15. 0ocean05bongo registered @ 2013-01-25 17:47:47, last login @ 2013-01-25 17:47:47
  16. 0duck0land registered @ 2013-01-25 17:48:39, last login @ 2013-01-25 17:48:39
  17. 0frownelbow9 registered @ 2013-01-25 17:52:52, last login @ 2013-01-25 17:52:52
  18. 0neondew5 registered @ 2013-01-25 17:53:29, last login @ 2013-01-25 17:53:29
  19. 0kimaestador registered @ 2013-01-25 17:55:18, last login @ 2013-01-25 17:55:18
  20. 0carpainting455 registered @ 2013-01-25 17:55:23, last login @ 2013-01-25 17:55:23
  21. 0shelfrabbi1 registered @ 2013-01-25 17:55:57, last login @ 2013-01-25 17:55:57
  22. 0AwahNeba registered @ 2013-01-25 17:56:41, last login @ 2013-01-25 17:56:41
  23. 0marketdavid83 registered @ 2013-01-25 17:59:07, last login @ 2013-01-25 17:59:07
  24. 0burstkorean7 registered @ 2013-01-25 18:00:27, last login @ 2013-01-25 18:00:27
  25. 0meatblack39 registered @ 2013-01-25 18:02:46, last login @ 2013-01-25 18:02:46
  26. 0brown65dad registered @ 2013-01-25 18:02:48, last login @ 2013-01-25 18:02:48
  27. 0beretchin1 registered @ 2013-01-25 18:02:56, last login @ 2013-01-25 18:02:56
  28. 0butane87fender registered @ 2013-01-25 18:02:59, last login @ 2013-01-25 18:02:59
  29. 0shapter registered @ 2013-01-25 18:03:18, last login @ 2013-01-25 18:03:18
  30. 0handplot38 registered @ 2013-01-25 18:05:35, last login @ 2013-01-25 18:05:35
  31. 0chessbutter02 registered @ 2013-01-25 18:05:36, last login @ 2013-01-25 18:05:36
  32. 0archerpunch64 registered @ 2013-01-25 18:05:38, last login @ 2013-01-25 18:55:45
  33. 0rhythm2steam registered @ 2013-01-25 18:05:54, last login @ 2013-01-25 18:05:54
  34. 0whip7text registered @ 2013-01-25 18:07:56, last login @ 2013-01-25 18:07:56
  35. 0virgopuffin82 registered @ 2013-01-25 18:08:19, last login @ 2013-01-25 18:42:34
  36. 0gear9cell registered @ 2013-01-25 18:10:56, last login @ 2013-01-25 18:46:02
  37. 0book87ease registered @ 2013-01-25 18:12:11, last login @ 2013-01-25 18:12:11
  38. 0fingerturn87 registered @ 2013-01-25 18:12:25, last login @ 2013-01-25 18:36:41
  39. 0yew34car registered @ 2013-01-25 18:12:57, last login @ 2013-01-25 18:12:57
  40. 0pantry1mother registered @ 2013-01-25 18:13:31, last login @ 2013-01-25 18:13:31
  41. 0heat62april registered @ 2013-01-25 18:13:33, last login @ 2013-01-25 18:13:33
  42. 0kenyamail5 registered @ 2013-01-25 18:14:00, last login @ 2013-01-25 18:14:00
  43. 0niece12lyre registered @ 2013-01-25 18:14:02, last login @ 2013-01-25 18:14:02
  44. 0violetpaper35 registered @ 2013-01-25 18:15:55, last login @ 2013-01-25 18:15:55
  45. 0gram9fall registered @ 2013-01-25 18:17:09, last login @ 2013-01-25 18:17:09
  46. 0peaktemple46 registered @ 2013-01-25 18:17:24, last login @ 2013-01-25 18:17:24
  47. 0routeratm61 registered @ 2013-01-25 18:17:28, last login @ 2013-01-25 18:17:28
  48. 0handsharon49 registered @ 2013-01-25 18:18:00, last login @ 2013-01-25 18:18:00
  49. 0seacoffee3 registered @ 2013-01-25 18:18:18, last login @ 2013-01-25 19:00:54
  50. 0cobweb17chess registered @ 2013-01-25 18:18:20, last login @ 2013-01-25 18:18:20
  51. 0yak1toe registered @ 2013-01-25 18:18:26, last login @ 2013-01-25 18:18:26
  52. 0shirt3icicle registered @ 2013-01-25 18:18:42, last login @ 2013-01-25 18:18:42
  53. 0robertthomas79 registered @ 2013-01-25 18:20:18, last login @ 2013-01-25 18:20:18
  54. 0liquidsalmon36 registered @ 2013-01-25 18:22:22, last login @ 2013-01-25 18:22:22
  55. 0twigcloudy9 registered @ 2013-01-25 18:24:00, last login @ 2013-01-25 18:44:11
  56. 0squidowner0 registered @ 2013-01-25 18:24:09, last login @ 2013-01-25 18:24:09
  57. 0Dragomaka registered @ 2013-01-25 18:25:28, last login @ 2013-01-25 18:25:28
  58. 0sneezebaker05 registered @ 2013-01-25 18:26:46, last login @ 2013-01-25 18:26:46
  59. 0column8india registered @ 2013-01-25 18:26:46, last login @ 2013-01-25 18:26:46
  60. 0petershen registered @ 2013-01-25 18:26:58, last login @ 2013-01-25 18:27:39
  61. 0Robertnakly registered @ 2013-01-25 18:27:13, last login @ 2013-01-25 18:27:13
  62. 0beard01week registered @ 2013-01-25 18:28:20, last login @ 2013-01-25 18:28:20
  63. 0lisarose68 registered @ 2013-01-25 18:28:29, last login @ 2013-01-25 18:28:29
  64. 0buffer9drake registered @ 2013-01-25 18:29:19, last login @ 2013-01-25 18:29:19
  65. 0band75pain registered @ 2013-01-25 18:29:42, last login @ 2013-01-25 18:29:42
  66. 0color1foot registered @ 2013-01-25 18:30:03, last login @ 2013-01-25 18:30:03
  67. 0tent19sphere registered @ 2013-01-25 18:30:12, last login @ 2013-01-25 18:30:12
  68. 0energy33wash registered @ 2013-01-25 18:30:52, last login @ 2013-01-25 18:30:52
  69. 0slope56pet registered @ 2013-01-25 18:31:20, last login @ 2013-01-25 18:31:20
  70. 0witchrail5 registered @ 2013-01-25 18:33:04, last login @ 2013-01-25 18:33:04
  71. 0screwgray6 registered @ 2013-01-25 18:33:19, last login @ 2013-01-25 18:33:19
  72. 0partpet5 registered @ 2013-01-25 18:33:52, last login @ 2013-01-25 18:33:52
  73. 0camerarain90 registered @ 2013-01-25 18:33:54, last login @ 2013-01-25 18:53:41
  74. 0lan7event registered @ 2013-01-25 18:35:50, last login @ 2013-01-25 18:35:50
  75. 0frenchbill6 registered @ 2013-01-25 18:37:32, last login @ 2013-01-25 18:37:32
  76. 0pantry43bead registered @ 2013-01-25 18:38:54, last login @ 2013-01-25 18:38:54
  77. 0friend7subway registered @ 2013-01-25 18:39:31, last login @ 2013-01-25 18:39:31
  78. 0plain2spark registered @ 2013-01-25 18:39:36, last login @ 2013-01-25 18:39:36
  79. 0pigcrib91 registered @ 2013-01-25 18:41:21, last login @ 2013-01-25 18:41:21
  80. 0gameauthor37 registered @ 2013-01-25 18:41:33, last login @ 2013-01-25 18:41:33
  81. 0limit9tuna registered @ 2013-01-25 18:41:45, last login @ 2013-01-25 18:41:45
  82. 0chive1archer registered @ 2013-01-25 18:43:50, last login @ 2013-01-25 18:43:50
  83. 0nutroot0 registered @ 2013-01-25 18:44:11, last login @ 2013-01-25 18:44:11
  84. 0linen8east registered @ 2013-01-25 18:45:47, last login @ 2013-01-25 18:45:47
  85. 0vessel00seed registered @ 2013-01-25 18:46:36, last login @ 2013-01-25 18:46:36
  86. 0beetopen9 registered @ 2013-01-25 18:47:58, last login @ 2013-01-25 18:47:58
  87. 0glider4friend registered @ 2013-01-25 18:48:11, last login @ 2013-01-25 18:48:11
  88. 0farmerbotany39 registered @ 2013-01-25 18:49:07, last login @ 2013-01-25 18:49:07
  89. 0lathe5ant registered @ 2013-01-25 18:49:51, last login @ 2013-01-25 18:49:51
  90. 0leo74target registered @ 2013-01-25 18:50:09, last login @ 2013-01-25 18:50:09
  91. 0carvinyl675 registered @ 2013-01-25 18:54:08, last login @ 2013-01-25 18:54:08
  92. 0dropmail9 registered @ 2013-01-25 18:55:10, last login @ 2013-01-25 18:55:10
  93. 0henneedle55 registered @ 2013-01-25 18:55:15, last login @ 2013-01-25 18:55:15
  94. 0jasonplane9 registered @ 2013-01-25 18:57:21, last login @ 2013-01-25 18:57:21
  95. 0cattle0iraq registered @ 2013-01-25 18:58:24, last login @ 2013-01-25 18:58:24
  96. 0beaverbutane4 registered @ 2013-01-25 19:01:14, last login @ 2013-01-25 19:01:14
  97. 0degree04dish registered @ 2013-01-25 19:01:40, last login @ 2013-01-25 19:01:40
  98. 0lead4seat registered @ 2013-01-25 19:03:44, last login @ 2013-01-25 19:03:44
  99. 0sotoxmzm0mgm registered @ 2013-01-25 19:04:34, last login @ 2013-01-25 19:04:34
  100. 0doll9soccer registered @ 2013-01-25 19:04:44, last login @ 2013-01-25 19:43:20
  101. 0conga05gear registered @ 2013-01-25 19:05:09, last login @ 2013-01-25 19:05:09

More...

[5632] [5631] [5630] [5629] [5628] [5627] [5626] [5625] [5624] [5623] [5622] [5621] [5620] [5619] [5618] [5617] [5616] [5615] [5614] [5613] ...[1]
Back to Top